createdAt,value
2018-09-20T00:00:26.672Z,3.60
2018-09-20T00:02:55.141Z,3.23
2018-09-20T00:05:23.717Z,3.40
2018-09-20T00:07:52.156Z,4.33
2018-09-20T00:10:20.783Z,3.87
2018-09-20T00:12:49.278Z,4.30
2018-09-20T00:15:17.817Z,3.97
2018-09-20T00:17:46.324Z,3.93
2018-09-20T00:20:14.838Z,3.87
2018-09-20T00:22:43.428Z,3.60
2018-09-20T00:25:11.961Z,3.70
2018-09-20T00:27:40.378Z,3.90
2018-09-20T00:30:08.924Z,3.80
2018-09-20T00:32:37.332Z,4.30
2018-09-20T00:35:06.126Z,3.70
2018-09-20T00:37:34.696Z,4.47
2018-09-20T00:40:03.210Z,3.70
2018-09-20T00:42:31.665Z,4.30
2018-09-20T00:45:00.128Z,4.00
2018-09-20T00:47:28.654Z,3.60
2018-09-20T00:49:57.297Z,3.93
2018-09-20T00:52:25.804Z,4.17
2018-09-20T00:54:54.240Z,3.63
2018-09-20T00:57:22.740Z,3.90
2018-09-20T00:59:51.460Z,4.07
2018-09-20T01:02:19.917Z,3.70
2018-09-20T01:04:48.377Z,3.37
2018-09-20T01:07:16.920Z,4.20
2018-09-20T01:09:45.373Z,2.77
2018-09-20T01:12:13.831Z,3.70
2018-09-20T01:14:42.289Z,4.03
2018-09-20T01:17:10.868Z,3.60
2018-09-20T01:19:39.156Z,4.10
2018-09-20T01:22:07.604Z,3.80
2018-09-20T01:24:36.078Z,3.67
2018-09-20T01:27:04.348Z,3.93
2018-09-20T01:29:32.611Z,4.00
2018-09-20T01:32:01.052Z,4.00
2018-09-20T01:34:29.524Z,4.50
2018-09-20T01:36:58.070Z,3.53
2018-09-20T01:39:26.521Z,4.03
2018-09-20T01:41:55.174Z,3.37
2018-09-20T01:44:23.713Z,3.60
2018-09-20T01:46:52.128Z,3.80
2018-09-20T01:49:20.632Z,3.50
2018-09-20T01:51:49.145Z,3.90
2018-09-20T01:54:17.635Z,3.97
2018-09-20T01:56:46.045Z,4.03
2018-09-20T01:59:14.550Z,3.80
2018-09-20T02:01:43.020Z,4.83
2018-09-20T02:04:11.132Z,3.90
2018-09-20T02:06:39.596Z,4.40
2018-09-20T02:09:09.260Z,3.80
2018-09-20T02:11:37.754Z,3.30
2018-09-20T02:14:06.824Z,3.50
2018-09-20T02:16:35.508Z,3.63
2018-09-20T02:19:04.192Z,3.40
2018-09-20T02:21:32.698Z,4.13
2018-09-20T02:24:01.231Z,3.70
2018-09-20T02:26:29.651Z,4.00
2018-09-20T02:28:58.157Z,3.90
2018-09-20T02:31:26.640Z,4.40
2018-09-20T02:33:55.315Z,3.37
2018-09-20T02:36:23.787Z,4.47
2018-09-20T02:38:52.386Z,3.47
2018-09-20T02:41:20.595Z,3.83
2018-09-20T02:43:49.079Z,3.57
2018-09-20T02:46:17.483Z,4.30
2018-09-20T02:48:46.263Z,3.93
2018-09-20T02:51:14.664Z,4.43
2018-09-20T02:53:43.172Z,3.80
2018-09-20T02:56:11.641Z,3.90
2018-09-20T02:58:40.105Z,4.17
2018-09-20T03:01:08.619Z,4.10
2018-09-20T03:03:37.484Z,4.10
2018-09-20T03:06:05.990Z,3.50
2018-09-20T03:08:34.437Z,3.90
2018-09-20T03:11:02.921Z,3.40
2018-09-20T03:13:31.396Z,3.97
2018-09-20T03:15:59.960Z,3.87
2018-09-20T03:18:28.584Z,4.60
2018-09-20T03:20:57.054Z,3.70
2018-09-20T03:23:25.720Z,3.47
2018-09-20T03:25:54.222Z,3.83
2018-09-20T03:28:22.696Z,4.40
2018-09-20T03:30:51.274Z,3.87
2018-09-20T03:33:19.684Z,4.50
2018-09-20T03:35:48.172Z,3.93
2018-09-20T03:38:16.616Z,3.97
2018-09-20T03:40:45.164Z,4.20
2018-09-20T03:43:13.556Z,4.37
2018-09-20T03:45:42.051Z,3.80
2018-09-20T03:48:10.204Z,3.90
2018-09-20T03:50:38.847Z,4.07
2018-09-20T03:53:07.291Z,4.27
2018-09-20T03:55:35.756Z,4.27
2018-09-20T03:58:03.969Z,4.10
2018-09-20T04:00:32.696Z,4.60
2018-09-20T04:03:01.396Z,4.67
2018-09-20T04:05:29.927Z,5.37
2018-09-20T04:07:58.372Z,4.20
2018-09-20T04:10:26.865Z,4.33
2018-09-20T04:12:55.008Z,3.60
2018-09-20T04:15:23.408Z,4.17
2018-09-20T04:17:51.957Z,3.90
2018-09-20T04:20:20.351Z,3.97
2018-09-20T04:22:48.848Z,3.97
2018-09-20T04:25:17.309Z,3.83
2018-09-20T04:27:45.840Z,4.03
2018-09-20T04:30:14.341Z,3.40
2018-09-20T04:32:42.804Z,4.10
2018-09-20T04:35:11.292Z,3.50
2018-09-20T04:37:39.724Z,3.60
2018-09-20T04:40:08.257Z,4.17
2018-09-20T04:42:36.712Z,3.93
2018-09-20T04:45:05.769Z,3.90
2018-09-20T04:47:33.936Z,3.50
2018-09-20T04:50:02.352Z,4.20
2018-09-20T04:52:30.857Z,3.83
2018-09-20T04:54:59.164Z,3.87
2018-09-20T04:57:27.564Z,3.70
2018-09-20T04:59:56.119Z,3.93
2018-09-20T05:02:24.565Z,4.07
2018-09-20T05:04:53.046Z,3.60
2018-09-20T05:07:21.528Z,4.13
2018-09-20T05:09:49.964Z,4.00
2018-09-20T05:12:18.471Z,4.13
2018-09-20T05:14:46.921Z,4.23
2018-09-20T05:17:15.384Z,4.63
2018-09-20T05:19:43.886Z,5.07
2018-09-20T05:22:12.353Z,4.73
2018-09-20T05:24:40.913Z,3.83
2018-09-20T05:27:09.329Z,4.90
2018-09-20T05:29:37.844Z,4.30
2018-09-20T05:32:06.267Z,3.90
2018-09-20T05:34:34.478Z,3.97
2018-09-20T05:37:03.034Z,4.60
2018-09-20T05:39:31.537Z,3.90
2018-09-20T05:41:59.990Z,4.80
2018-09-20T05:44:28.513Z,3.70
2018-09-20T05:46:56.956Z,4.63
2018-09-20T05:49:25.500Z,4.27
2018-09-20T05:51:53.915Z,4.27
2018-09-20T05:54:22.425Z,4.60
2018-09-20T05:56:50.892Z,4.00
2018-09-20T05:59:19.378Z,4.37
2018-09-20T06:01:48.085Z,5.10
2018-09-20T06:04:16.517Z,4.13
2018-09-20T06:06:45.072Z,4.83
2018-09-20T06:09:13.525Z,4.77
2018-09-20T06:11:41.967Z,4.03
2018-09-20T06:14:10.443Z,4.40
2018-09-20T06:16:38.933Z,4.13
2018-09-20T06:19:07.534Z,3.97
2018-09-20T06:21:35.952Z,4.00
2018-09-20T06:24:04.358Z,4.20
2018-09-20T06:26:32.884Z,4.17
2018-09-20T06:29:01.115Z,4.57
2018-09-20T06:31:31.640Z,4.47
2018-09-20T06:34:00.120Z,4.10
2018-09-20T06:36:28.616Z,3.83
2018-09-20T06:38:56.731Z,5.27
2018-09-20T06:41:25.194Z,5.13
2018-09-20T06:43:53.633Z,4.30
2018-09-20T06:46:22.334Z,4.07
2018-09-20T06:48:50.793Z,3.73
2018-09-20T06:51:19.280Z,4.13
2018-09-20T06:53:47.809Z,4.03
2018-09-20T06:56:16.276Z,4.10
2018-09-20T06:58:44.717Z,4.00
2018-09-20T07:01:13.476Z,4.30
2018-09-20T07:03:41.910Z,4.27
2018-09-20T07:06:10.392Z,4.80
2018-09-20T07:08:38.848Z,4.70
2018-09-20T07:11:07.391Z,4.00
2018-09-20T07:13:35.827Z,4.07
2018-09-20T07:16:04.295Z,4.17
2018-09-20T07:18:32.829Z,3.83
2018-09-20T07:21:01.257Z,4.17
2018-09-20T07:23:29.764Z,4.50
2018-09-20T07:25:58.387Z,3.70
2018-09-20T07:28:26.948Z,4.30
2018-09-20T07:30:55.371Z,4.43
2018-09-20T07:33:23.967Z,4.30
2018-09-20T07:35:52.335Z,4.20
2018-09-20T07:38:20.820Z,4.50
2018-09-20T07:40:49.332Z,3.47
2018-09-20T07:43:17.797Z,4.10
2018-09-20T07:45:46.302Z,3.83
2018-09-20T07:48:14.748Z,4.40
2018-09-20T07:50:43.193Z,4.47
2018-09-20T07:53:13.780Z,4.20
2018-09-20T07:55:42.241Z,3.80
2018-09-20T07:58:10.777Z,3.80
2018-09-20T08:00:39.187Z,3.67
2018-09-20T08:03:07.700Z,3.90
2018-09-20T08:05:36.137Z,3.90
2018-09-20T08:08:07.801Z,3.70
2018-09-20T08:10:36.429Z,3.53
2018-09-20T08:13:04.995Z,4.10
2018-09-20T08:15:33.959Z,4.50
2018-09-20T08:18:02.443Z,3.67
2018-09-20T08:20:30.953Z,4.20
2018-09-20T08:22:59.400Z,3.37
2018-09-20T08:25:27.909Z,3.80
2018-09-20T08:27:56.476Z,4.63
2018-09-20T08:30:24.910Z,4.23
2018-09-20T08:32:53.360Z,4.40
2018-09-20T08:35:21.998Z,3.90
2018-09-20T08:37:50.561Z,4.67
2018-09-20T08:40:19.004Z,4.20
2018-09-20T08:42:47.440Z,3.63
2018-09-20T08:45:16.055Z,3.50
2018-09-20T08:47:44.675Z,4.03
2018-09-20T08:50:13.138Z,3.70
2018-09-20T08:52:41.579Z,3.90
2018-09-20T08:55:10.144Z,3.80
2018-09-20T08:57:43.824Z,3.80
2018-09-20T09:00:12.361Z,3.80
2018-09-20T09:02:40.839Z,3.93
2018-09-20T09:05:09.323Z,4.33
2018-09-20T09:07:37.792Z,3.73
2018-09-20T09:10:06.512Z,3.97
2018-09-20T09:12:34.951Z,4.03
2018-09-20T09:15:03.485Z,4.10
2018-09-20T09:17:31.892Z,3.73
2018-09-20T09:20:00.452Z,3.57
2018-09-20T09:22:28.888Z,3.50
2018-09-20T09:24:57.421Z,3.73
2018-09-20T09:27:25.832Z,3.93
2018-09-20T09:29:54.375Z,4.17
2018-09-20T09:32:22.814Z,4.33
2018-09-20T09:34:51.252Z,4.03
2018-09-20T09:37:21.093Z,3.37
2018-09-20T09:39:49.653Z,3.60
2018-09-20T09:42:18.246Z,3.60
2018-09-20T09:44:46.688Z,3.53
2018-09-20T09:47:15.337Z,3.20
2018-09-20T09:49:43.825Z,4.73
2018-09-20T09:52:12.333Z,3.90
2018-09-20T09:54:40.785Z,5.03
2018-09-20T09:57:09.240Z,3.77
2018-09-20T09:59:37.780Z,3.50
2018-09-20T10:02:06.189Z,3.30
2018-09-20T10:04:34.651Z,3.40
2018-09-20T10:07:03.218Z,3.73
2018-09-20T10:09:31.620Z,3.30
2018-09-20T10:12:00.141Z,3.43
2018-09-20T10:14:28.636Z,3.80
2018-09-20T10:16:57.074Z,3.97
2018-09-20T10:19:25.541Z,3.60
2018-09-20T10:21:54.046Z,4.17
2018-09-20T10:24:22.521Z,3.20
2018-09-20T10:26:50.980Z,3.50
2018-09-20T10:29:19.175Z,4.20
2018-09-20T10:31:47.528Z,3.37
2018-09-20T10:34:16.031Z,4.17
2018-09-20T10:36:44.523Z,3.53
2018-09-20T10:39:14.094Z,4.43
2018-09-20T10:41:42.761Z,3.70
2018-09-20T10:44:11.183Z,3.67
2018-09-20T10:46:39.652Z,3.70
2018-09-20T10:49:08.129Z,3.30
2018-09-20T10:51:36.911Z,4.50
2018-09-20T10:54:05.368Z,3.67
2018-09-20T10:56:34.157Z,4.33
2018-09-20T10:59:02.729Z,3.57
2018-09-20T11:01:31.338Z,3.93
2018-09-20T11:03:59.847Z,3.53
2018-09-20T11:06:28.297Z,3.60
2018-09-20T11:08:56.810Z,3.30
2018-09-20T11:11:25.264Z,3.97
2018-09-20T11:13:53.773Z,3.37
2018-09-20T11:16:22.228Z,4.00
2018-09-20T11:18:50.731Z,4.00
2018-09-20T11:21:19.180Z,3.23
2018-09-20T11:23:47.737Z,3.90
2018-09-20T11:26:16.148Z,3.53
2018-09-20T11:28:44.623Z,3.07
2018-09-20T11:31:13.304Z,3.00
2018-09-20T11:33:41.780Z,3.30
2018-09-20T11:36:10.301Z,3.27
2018-09-20T11:38:38.781Z,3.70
2018-09-20T11:41:07.435Z,3.20
2018-09-20T11:43:36.128Z,3.23
2018-09-20T11:46:04.654Z,3.50
2018-09-20T11:48:33.123Z,3.20
2018-09-20T11:51:01.599Z,3.43
2018-09-20T11:53:30.068Z,3.20
2018-09-20T11:55:58.558Z,3.50
2018-09-20T11:58:27.080Z,3.50
2018-09-20T12:00:55.504Z,3.20
2018-09-20T12:03:24.235Z,3.57
2018-09-20T12:05:52.672Z,3.50
2018-09-20T12:08:21.156Z,3.80
2018-09-20T12:10:49.640Z,3.67
2018-09-20T12:13:18.153Z,3.03
2018-09-20T12:15:46.603Z,3.50
2018-09-20T12:18:15.099Z,3.17
2018-09-20T12:20:43.621Z,3.10
2018-09-20T12:23:12.138Z,3.17
2018-09-20T12:25:41.137Z,3.50
2018-09-20T12:28:09.645Z,3.20
2018-09-20T12:30:38.183Z,3.50
2018-09-20T12:33:07.005Z,3.20
2018-09-20T12:35:35.516Z,3.00
2018-09-20T12:38:03.968Z,3.00
2018-09-20T12:40:32.424Z,2.90
2018-09-20T12:43:00.969Z,3.50
2018-09-20T12:45:29.401Z,3.30
2018-09-20T12:47:57.907Z,3.17
2018-09-20T12:50:26.328Z,2.80
2018-09-20T12:52:54.819Z,3.50
2018-09-20T12:55:23.331Z,3.30
2018-09-20T12:57:51.821Z,3.70
2018-09-20T13:00:20.720Z,3.47
2018-09-20T13:02:49.168Z,3.30
2018-09-20T13:05:17.644Z,3.10
2018-09-20T13:07:46.135Z,3.10
2018-09-20T13:10:14.581Z,3.20
2018-09-20T13:12:43.075Z,3.53
2018-09-20T13:15:11.553Z,3.00
2018-09-20T13:17:40.074Z,3.37
2018-09-20T13:20:08.584Z,3.47
2018-09-20T13:22:37.049Z,3.13
2018-09-20T13:25:05.454Z,3.50
2018-09-20T13:27:33.968Z,3.13
2018-09-20T13:30:02.475Z,2.87
2018-09-20T13:32:30.905Z,3.20
2018-09-20T13:34:59.388Z,2.77
2018-09-20T13:37:27.921Z,2.93
2018-09-20T13:39:56.381Z,3.60
2018-09-20T13:42:24.821Z,3.17
2018-09-20T13:44:53.320Z,2.73
2018-09-20T13:47:21.897Z,3.10
2018-09-20T13:49:50.486Z,3.17
2018-09-20T13:52:18.959Z,2.87
2018-09-20T13:54:47.474Z,3.37
2018-09-20T13:57:15.913Z,3.50
2018-09-20T13:59:44.424Z,3.30
2018-09-20T14:02:12.925Z,3.00
2018-09-20T14:04:41.365Z,2.77
2018-09-20T14:07:09.891Z,2.70
2018-09-20T14:09:38.309Z,2.80
2018-09-20T14:12:06.785Z,3.07
2018-09-20T14:14:35.286Z,2.67
2018-09-20T14:17:03.779Z,3.10
2018-09-20T14:19:32.239Z,3.40
2018-09-20T14:22:00.745Z,3.20
2018-09-20T14:24:29.289Z,2.80
2018-09-20T14:26:57.664Z,2.90
2018-09-20T14:29:26.200Z,2.80
2018-09-20T14:31:55.613Z,2.73
2018-09-20T14:34:24.220Z,2.30
2018-09-20T14:36:52.600Z,3.17
2018-09-20T14:39:21.100Z,2.60
2018-09-20T14:41:49.580Z,2.40
2018-09-20T14:44:18.041Z,2.60
2018-09-20T14:46:46.612Z,3.30
2018-09-20T14:49:15.021Z,3.53
2018-09-20T14:51:43.701Z,3.20
2018-09-20T14:54:12.211Z,2.70
2018-09-20T14:56:40.776Z,2.60
2018-09-20T14:59:09.345Z,2.60
2018-09-20T15:01:37.828Z,2.57
2018-09-20T15:04:06.335Z,2.60
2018-09-20T15:06:34.816Z,3.10
2018-09-20T15:09:03.008Z,3.20
2018-09-20T15:11:31.733Z,2.67
2018-09-20T15:14:00.220Z,2.70
2018-09-20T15:16:28.725Z,2.80
2018-09-20T15:18:57.188Z,3.13
2018-09-20T15:21:25.713Z,2.50
2018-09-20T15:23:54.163Z,2.53
2018-09-20T15:26:22.888Z,2.90
2018-09-20T15:28:51.316Z,2.67
2018-09-20T15:31:19.788Z,2.40
2018-09-20T15:33:48.807Z,3.07
2018-09-20T15:36:17.360Z,2.70
2018-09-20T15:38:45.860Z,2.80
2018-09-20T15:41:14.321Z,2.60
2018-09-20T15:43:42.913Z,2.90
2018-09-20T15:46:11.313Z,3.30
2018-09-20T15:48:39.773Z,3.03
2018-09-20T15:51:08.540Z,3.50
2018-09-20T15:53:36.939Z,3.30
2018-09-20T15:56:05.405Z,2.97
2018-09-20T15:58:33.945Z,2.50
2018-09-20T16:01:02.369Z,2.90
2018-09-20T16:03:30.868Z,2.80
2018-09-20T16:05:59.419Z,2.70
2018-09-20T16:08:27.865Z,2.60
2018-09-20T16:10:56.324Z,2.47
2018-09-20T16:13:24.848Z,2.60
2018-09-20T16:15:53.253Z,2.77
2018-09-20T16:18:21.792Z,2.40
2018-09-20T16:20:50.244Z,3.23
2018-09-20T16:23:18.720Z,2.90
2018-09-20T16:25:47.188Z,2.80
2018-09-20T16:28:27.753Z,2.67
2018-09-20T16:31:37.497Z,2.57
2018-09-20T16:34:26.775Z,2.57
2018-09-20T16:37:06.855Z,2.60
2018-09-20T16:39:38.080Z,2.50
2018-09-20T16:42:09.228Z,2.83
2018-09-20T16:44:37.733Z,2.53
2018-09-20T16:47:06.269Z,2.43
2018-09-20T16:49:34.844Z,2.40
2018-09-20T16:52:03.326Z,2.00
2018-09-20T16:54:31.923Z,2.80
2018-09-20T16:57:00.706Z,2.80
2018-09-20T16:59:29.366Z,2.67
2018-09-20T17:01:57.975Z,2.37
2018-09-20T17:04:26.604Z,2.43
2018-09-20T17:06:55.235Z,2.47
2018-09-20T17:09:23.923Z,2.43
2018-09-20T17:11:52.396Z,2.40
2018-09-20T17:14:21.146Z,2.50
2018-09-20T17:16:49.641Z,2.53
2018-09-20T17:19:18.051Z,2.60
2018-09-20T17:21:46.842Z,2.67
2018-09-20T17:24:15.415Z,2.23
2018-09-20T17:26:43.948Z,2.80
2018-09-20T17:29:12.356Z,2.30
2018-09-20T17:31:40.859Z,2.50
2018-09-20T17:34:09.333Z,2.70
2018-09-20T17:36:38.268Z,2.40
2018-09-20T17:39:10.760Z,2.80
2018-09-20T17:41:40.399Z,2.40
2018-09-20T17:44:09.457Z,3.00
2018-09-20T17:46:37.886Z,2.50
2018-09-20T17:49:06.363Z,2.80
2018-09-20T17:51:35.562Z,2.70
2018-09-20T17:54:04.289Z,2.77
2018-09-20T17:57:03.428Z,3.30
2018-09-20T17:59:31.796Z,2.87
2018-09-20T18:02:00.296Z,2.40
2018-09-20T18:04:28.749Z,2.30
2018-09-20T18:06:57.235Z,2.50
2018-09-20T18:09:25.725Z,2.50
2018-09-20T18:11:54.204Z,2.70
2018-09-20T18:14:22.666Z,2.07
2018-09-20T18:16:51.205Z,2.90
2018-09-20T18:19:19.694Z,2.63
2018-09-20T18:21:48.156Z,2.70
2018-09-20T18:24:16.643Z,2.87
2018-09-20T18:26:45.355Z,2.30
2018-09-20T18:29:13.747Z,2.70
2018-09-20T18:31:42.251Z,2.57
2018-09-20T18:34:10.800Z,2.77
2018-09-20T18:36:39.216Z,2.53
2018-09-20T18:39:09.841Z,2.70
2018-09-20T18:41:38.205Z,2.47
2018-09-20T18:44:06.901Z,2.57
2018-09-20T18:46:35.370Z,2.70
2018-09-20T18:49:03.888Z,2.57
2018-09-20T18:51:32.316Z,2.60
2018-09-20T18:54:00.818Z,2.77
2018-09-20T18:56:29.472Z,2.50
2018-09-20T18:58:58.013Z,2.10
2018-09-20T19:01:26.497Z,2.77
2018-09-20T19:03:54.949Z,2.90
2018-09-20T19:06:24.532Z,2.53
2018-09-20T19:08:52.949Z,2.13
2018-09-20T19:11:21.444Z,2.60
2018-09-20T19:13:49.894Z,2.30
2018-09-20T19:16:18.599Z,2.70
2018-09-20T19:18:47.236Z,2.10
2018-09-20T19:21:15.809Z,2.50
2018-09-20T19:23:44.314Z,2.60
2018-09-20T19:26:12.681Z,2.40
2018-09-20T19:28:41.449Z,2.53
2018-09-20T19:31:09.900Z,2.43
2018-09-20T19:33:38.381Z,2.27
2018-09-20T19:36:06.825Z,2.30
2018-09-20T19:38:35.338Z,2.27
2018-09-20T19:41:04.113Z,2.93
2018-09-20T19:43:32.660Z,2.07
2018-09-20T19:46:01.150Z,2.47
2018-09-20T19:48:29.626Z,2.40
2018-09-20T19:50:58.356Z,2.00
2018-09-20T19:53:26.967Z,2.67
2018-09-20T19:55:55.504Z,2.13
2018-09-20T19:58:23.959Z,2.40
2018-09-20T20:00:52.432Z,2.50
2018-09-20T20:03:21.157Z,2.70
2018-09-20T20:05:49.616Z,2.60
2018-09-20T20:08:18.080Z,2.47
2018-09-20T20:10:46.572Z,2.90
2018-09-20T20:13:15.036Z,2.10
2018-09-20T20:15:43.658Z,2.10
2018-09-20T20:18:12.308Z,2.60
2018-09-20T20:20:40.917Z,2.33
2018-09-20T20:23:09.368Z,2.53
2018-09-20T20:25:37.897Z,2.37
2018-09-20T20:28:06.335Z,2.63
2018-09-20T20:30:35.016Z,2.17
2018-09-20T20:33:03.490Z,2.77
2018-09-20T20:35:32.112Z,2.30
2018-09-20T20:38:00.656Z,2.50
2018-09-20T20:40:29.148Z,2.50
2018-09-20T20:42:57.673Z,2.10
2018-09-20T20:45:26.237Z,2.47
2018-09-20T20:47:54.776Z,2.60
2018-09-20T20:50:23.316Z,2.33
2018-09-20T20:52:51.793Z,2.60
2018-09-20T20:55:20.226Z,2.40
2018-09-20T20:57:48.716Z,2.80
2018-09-20T21:00:17.780Z,2.97
2018-09-20T21:02:46.297Z,3.00
2018-09-20T21:05:15.017Z,2.93
2018-09-20T21:07:43.448Z,2.50
2018-09-20T21:10:11.969Z,2.30
2018-09-20T21:12:40.423Z,2.47
2018-09-20T21:15:08.911Z,2.10
2018-09-20T21:17:37.469Z,2.93
2018-09-20T21:20:06.128Z,2.40
2018-09-20T21:22:34.539Z,2.33
2018-09-20T21:25:03.008Z,2.63
2018-09-20T21:27:31.556Z,2.13
2018-09-20T21:29:59.965Z,2.67
2018-09-20T21:32:28.500Z,2.47
2018-09-20T21:34:56.948Z,2.63
2018-09-20T21:37:25.424Z,2.30
2018-09-20T21:39:53.925Z,2.30
2018-09-20T21:42:22.392Z,2.27
2018-09-20T21:44:50.874Z,2.13
2018-09-20T21:47:19.344Z,2.60
2018-09-20T21:49:47.860Z,2.47
2018-09-20T21:52:16.301Z,2.33
2018-09-20T21:54:44.808Z,2.27
2018-09-20T21:57:13.301Z,2.00
2018-09-20T21:59:41.740Z,2.63
2018-09-20T22:02:10.218Z,2.37
2018-09-20T22:04:38.724Z,2.07
2018-09-20T22:07:07.205Z,2.23
2018-09-20T22:09:36.064Z,2.10
2018-09-20T22:12:04.544Z,2.20
2018-09-20T22:14:33.032Z,2.43
2018-09-20T22:17:01.508Z,2.30
2018-09-20T22:19:29.997Z,2.10
2018-09-20T22:21:58.473Z,2.27
2018-09-20T22:24:26.948Z,2.10
2018-09-20T22:26:55.460Z,2.03
2018-09-20T22:29:23.955Z,2.23
2018-09-20T22:31:52.393Z,2.00
2018-09-20T22:34:20.887Z,2.53
2018-09-20T22:36:49.357Z,2.60
2018-09-20T22:39:17.875Z,2.20
2018-09-20T22:41:46.556Z,2.40
2018-09-20T22:44:15.005Z,2.33
2018-09-20T22:46:43.502Z,2.73
2018-09-20T22:49:11.982Z,2.47
2018-09-20T22:51:40.424Z,2.33
2018-09-20T22:54:08.917Z,2.50
2018-09-20T22:56:37.453Z,2.57
2018-09-20T22:59:05.970Z,2.73
2018-09-20T23:01:34.356Z,2.30
2018-09-20T23:04:02.828Z,2.30
2018-09-20T23:06:31.572Z,2.00
2018-09-20T23:09:00.001Z,2.53
2018-09-20T23:11:28.488Z,2.80
2018-09-20T23:13:57.002Z,2.47
2018-09-20T23:16:25.517Z,2.43
2018-09-20T23:18:56.174Z,2.60
2018-09-20T23:21:24.756Z,2.40
2018-09-20T23:23:53.139Z,2.63
2018-09-20T23:26:21.689Z,2.70
2018-09-20T23:28:50.306Z,2.87
2018-09-20T23:31:19.194Z,2.50
2018-09-20T23:33:47.948Z,2.40
2018-09-20T23:36:16.381Z,2.90
2018-09-20T23:38:44.833Z,2.80
2018-09-20T23:41:13.338Z,2.17
2018-09-20T23:43:41.798Z,2.13
2018-09-20T23:46:10.330Z,2.30
2018-09-20T23:48:38.812Z,2.60
2018-09-20T23:51:07.348Z,2.30
2018-09-20T23:53:35.784Z,2.70
2018-09-20T23:56:04.209Z,2.53
2018-09-20T23:58:32.708Z,2.07
